Time;durP1;ratioP1;P1;durP2;ratioP2;P2;SDS_P1;SDS_P2;PMS_P1;PMS_P2;Temp;Humidity;BMP_temperature;BMP_pressure;BME280_temperature;BME280_humidity;BME280_pressure;Samples;Min_cycle;Max_cycle;Signal;HPM_P1;HPM_P2
2023/06/01 00:00:44;;;;;;;;;;;;;;;;;;2021332;29;19915;-74
2023/06/01 00:02:04;;;;;;;;;;;;;;;;;;2009101;29;19915;-74
2023/06/01 00:03:26;;;;;;;;;;;;;;;;;;2014242;29;19912;-74
2023/06/01 00:04:48;;;;;;;;;;;;;;;;;;2021032;29;19919;-74
2023/06/01 00:06:09;;;;;;;;;;;;;;;;;;2020819;29;19948;-75
2023/06/01 00:07:29;;;;;;;;;;;;;;;;;;2025453;29;20255;-74
2023/06/01 00:08:50;;;;;;;;;;;;;;;;;;2016619;29;19950;-74
2023/06/01 00:10:11;;;;;;;;;;;;;;;;;;2019223;29;19940;-74
2023/06/01 00:11:31;;;;;;;;;;;;;;;;;;2021488;29;19919;-76
2023/06/01 00:12:52;;;;;;;;;;;;;;;;;;2014576;29;20229;-74
2023/06/01 00:14:13;;;;;;;;;;;;;;;;;;2009908;29;19919;-74
2023/06/01 00:15:33;;;;;;;;;;;;;;;;;;2021649;29;19947;-74
2023/06/01 00:16:56;;;;;;;;;;;;;;;;;;2014603;29;19975;-74
2023/06/01 00:18:17;;;;;;;;;;;;;;;;;;2016518;29;20023;-74
2023/06/01 00:19:40;;;;;;;;;;;;;;;;;;2021088;29;19911;-74
2023/06/01 00:21:01;;;;;;;;;;;;;;;;;;2020911;29;19923;-74
2023/06/01 00:22:23;;;;;;;;;;;;;;;;;;2025079;29;19912;-74
2023/06/01 00:23:44;;;;;;;;;;;;;;;;;;2025252;29;20263;-74
2023/06/01 00:25:05;;;;;;;;;;;;;;;;;;2017820;29;19915;-75
2023/06/01 00:26:26;;;;;;;;;;;;;;;;;;2016068;29;19999;-74
2023/06/01 00:27:47;;;;;;;;;;;;;;;;;;2020624;29;20384;-74
2023/06/01 00:29:08;;;;;;;;;;;;;;;;;;2020713;29;19987;-74
2023/06/01 00:30:28;;;;;;;;;;;;;;;;;;2022091;29;19915;-74
2023/06/01 00:31:49;;;;;;;;;;;;;;;;;;2017494;29;19914;-74
2023/06/01 00:33:10;;;;;;;;;;;;;;;;;;2012574;29;20016;-74
2023/06/01 00:34:30;;;;;;;;;;;;;;;;;;2015493;29;19915;-74
2023/06/01 00:35:51;;;;;;;;;;;;;;;;;;2015560;29;20024;-74
2023/06/01 00:37:12;;;;;;;;;;;;;;;;;;2016312;29;19971;-74
2023/06/01 00:38:32;;;;;;;;;;;;;;;;;;2022816;29;20462;-74
2023/06/01 00:39:53;;;;;;;;;;;;;;;;;;2019548;29;19987;-74
2023/06/01 00:41:14;;;;;;;;;;;;;;;;;;2013921;29;19919;-74
2023/06/01 00:42:35;;;;;;;;;;;;;;;;;;2014476;29;19912;-73
2023/06/01 00:43:55;;;;;;;;;;;;;;;;;;2016083;29;19982;-74
2023/06/01 00:45:16;;;;;;;;;;;;;;;;;;2015497;29;19955;-74
2023/06/01 00:46:37;;;;;;;;;;;;;;;;;;2014879;29;20813;-74
2023/06/01 00:47:57;;;;;;;;;;;;;;;;;;2017337;29;20273;-74
2023/06/01 00:49:18;;;;;;;;;;;;;;;;;;2014944;29;19919;-74
2023/06/01 00:50:39;;;;;;;;;;;;;;;;;;2008806;29;20384;-74
2023/06/01 00:52:00;;;;;;;;;;;;;;;;;;2015371;29;19945;-74
2023/06/01 00:53:21;;;;;;;;;;;;;;;;;;2020575;29;19918;-74
2023/06/01 00:54:41;;;;;;;;;;;;;;;;;;2025784;29;19930;-74
2023/06/01 00:56:02;;;;;;;;;;;;;;;;;;2024009;29;19920;-74
2023/06/01 00:57:26;;;;;;;;;;;;;;;;;;2016640;29;19927;-74
2023/06/01 00:58:47;;;;;;;;;;;;;;;;;;2012646;29;19916;-74
2023/06/01 01:00:09;;;;;;;;;;;;;;;;;;2016217;29;19919;-70
2023/06/01 01:27:27;;;;;;;;;;;;;;;;;;2061966;23;19928;-95
2023/06/01 01:28:48;;;;;;;;;;;;;;;;;;2022871;29;19919;-95
2023/06/01 01:30:08;;;;;;;;;;;;;;;;;;2010185;29;19909;-96
2023/06/01 01:31:29;;;;;;;;;;;;;;;;;;2018777;29;19919;-95
2023/06/01 01:32:50;;;;;;;;;;;;;;;;;;2015406;29;19912;-96
2023/06/01 01:34:11;;;;;;;;;;;;;;;;;;2015086;29;19916;-96
2023/06/01 01:35:32;;;;;;;;;;;;;;;;;;2012057;29;20075;-95
2023/06/01 01:36:53;;;;;;;;;;;;;;;;;;2008931;29;19912;-95
2023/06/01 01:38:13;;;;;;;;;;;;;;;;;;2016627;29;19911;-95
2023/06/01 01:39:34;;;;;;;;;;;;;;;;;;2015450;29;19908;-94
2023/06/01 01:40:56;;;;;;;;;;;;;;;;;;2007702;29;19947;-95
2023/06/01 01:42:16;;;;;;;;;;;;;;;;;;2008774;29;19920;-96
2023/06/01 01:43:37;;;;;;;;;;;;;;;;;;2017223;29;19912;-95
2023/06/01 01:44:58;;;;;;;;;;;;;;;;;;2019323;29;19919;-94
2023/06/01 01:46:19;;;;;;;;;;;;;;;;;;2021236;29;19911;-95
2023/06/01 01:47:40;;;;;;;;;;;;;;;;;;2015666;29;19919;-95
2023/06/01 01:49:01;;;;;;;;;;;;;;;;;;2019576;29;20271;-96
2023/06/01 01:50:21;;;;;;;;;;;;;;;;;;2015791;29;19969;-95
2023/06/01 01:51:42;;;;;;;;;;;;;;;;;;2016699;29;19915;-95
2023/06/01 01:53:03;;;;;;;;;;;;;;;;;;2015093;29;19896;-95
2023/06/01 01:54:24;;;;;;;;;;;;;;;;;;2005819;29;19908;-96
2023/06/01 01:55:45;;;;;;;;;;;;;;;;;;2018155;29;19912;-95
2023/06/01 01:57:05;;;;;;;;;;;;;;;;;;2007820;29;19974;-95
2023/06/01 01:58:26;;;;;;;;;;;;;;;;;;2013600;29;19916;-94
2023/06/01 01:59:47;;;;;;;;;;;;;;;;;;2011310;29;20249;-95
2023/06/01 02:01:08;;;;;;;;;;;;;;;;;;2017492;29;19916;-95
2023/06/01 02:02:29;;;;;;;;;;;;;;;;;;2014121;29;19915;-95
2023/06/01 02:03:50;;;;;;;;;;;;;;;;;;2019917;29;19983;-94
2023/06/01 02:05:11;;;;;;;;;;;;;;;;;;2012135;29;19900;-94
2023/06/01 02:06:32;;;;;;;;;;;;;;;;;;2018099;29;20267;-94
2023/06/01 02:07:53;;;;;;;;;;;;;;;;;;2013100;29;19909;-95
2023/06/01 02:09:13;;;;;;;;;;;;;;;;;;2020946;29;19908;-95
2023/06/01 02:10:34;;;;;;;;;;;;;;;;;;2013161;29;19931;-94
2023/06/01 02:11:55;;;;;;;;;;;;;;;;;;2010606;29;19916;-95
2023/06/01 02:13:16;;;;;;;;;;;;;;;;;;2014011;29;19912;-95
2023/06/01 02:14:36;;;;;;;;;;;;;;;;;;2014063;29;19912;-94
2023/06/01 02:15:57;;;;;;;;;;;;;;;;;;2019745;29;19915;-94
2023/06/01 02:17:18;;;;;;;;;;;;;;;;;;2014022;29;19911;-94
2023/06/01 02:18:41;;;;;;;;;;;;;;;;;;2019197;29;19915;-94
2023/06/01 02:20:02;;;;;;;;;;;;;;;;;;2013996;29;19915;-95
2023/06/01 02:21:23;;;;;;;;;;;;;;;;;;2014294;29;19916;-94
2023/06/01 02:22:43;;;;;;;;;;;;;;;;;;2006533;29;20444;-95
2023/06/01 02:24:06;;;;;;;;;;;;;;;;;;2015260;29;19907;-95
2023/06/01 02:25:32;;;;;;;;;;;;;;;;;;2014594;29;19916;-95
2023/06/01 02:26:53;;;;;;;;;;;;;;;;;;2020442;29;19919;-94
2023/06/01 02:28:14;;;;;;;;;;;;;;;;;;2027677;29;19919;-94
2023/06/01 02:29:36;;;;;;;;;;;;;;;;;;2024937;29;19923;-95
2023/06/01 02:30:56;;;;;;;;;;;;;;;;;;2021179;29;20422;-94
2023/06/01 02:32:17;;;;;;;;;;;;;;;;;;2022382;29;20306;-94
2023/06/01 02:33:38;;;;;;;;;;;;;;;;;;2021992;29;20299;-95
2023/06/01 02:34:59;;;;;;;;;;;;;;;;;;2018822;29;19927;-95
2023/06/01 02:36:21;;;;;;;;;;;;;;;;;;2020108;29;19994;-95
2023/06/01 02:37:41;;;;;;;;;;;;;;;;;;2021582;29;19910;-94
2023/06/01 02:39:02;;;;;;;;;;;;;;;;;;2020290;29;19903;-95
2023/06/01 02:40:23;;;;;;;;;;;;;;;;;;2021320;29;19892;-95
2023/06/01 02:41:44;;;;;;;;;;;;;;;;;;2018988;29;20347;-95
2023/06/01 20:46:26;;;;;;;;;;;;;;;;;;1404424;23;20195;-88
2023/06/01 20:47:47;;;;;;;;;;;;;;;;;;2023348;29;19928;-95
2023/06/01 20:49:08;;;;;;;;;;;;;;;;;;2017114;29;19911;-95
2023/06/01 20:50:42;;;;;;;;;;;;;;;;;;;;;
2023/06/01 20:52:03;;;;;;;;;;;;;;;;;;2025986;29;19919;-96
2023/06/01 20:53:24;;;;;;;;;;;;;;;;;;2021015;29;19912;-96
2023/06/01 20:54:45;;;;;;;;;;;;;;;;;;2020195;29;20287;-95
2023/06/01 20:56:07;;;;;;;;;;;;;;;;;;2021662;29;19907;-95
2023/06/01 20:57:27;;;;;;;;;;;;;;;;;;2031136;29;19911;-95
2023/06/01 20:58:48;;;;;;;;;;;;;;;;;;2029572;29;19936;-95
2023/06/01 21:00:09;;;;;;;;;;;;;;;;;;2030579;29;19914;-94
2023/06/01 21:01:29;;;;;;;;;;;;;;;;;;2021073;29;19899;-95
2023/06/01 21:02:50;;;;;;;;;;;;;;;;;;2018122;29;19908;-95
2023/06/01 21:04:11;;;;;;;;;;;;;;;;;;2013273;29;19921;-95
2023/06/01 21:05:32;;;;;;;;;;;;;;;;;;2025468;29;19907;-95
2023/06/01 21:06:53;;;;;;;;;;;;;;;;;;2018885;29;19916;-95
2023/06/01 21:08:13;;;;;;;;;;;;;;;;;;2019637;29;19908;-96
2023/06/01 21:09:34;;;;;;;;;;;;;;;;;;2026268;29;19911;-96
2023/06/01 21:10:55;;;;;;;;;;;;;;;;;;2019730;29;19896;-95
2023/06/01 21:12:16;;;;;;;;;;;;;;;;;;2025198;29;19911;-95
2023/06/01 21:13:36;;;;;;;;;;;;;;;;;;2018761;29;19907;-95
2023/06/01 21:14:57;;;;;;;;;;;;;;;;;;2023120;29;19908;-95
2023/06/01 21:16:18;;;;;;;;;;;;;;;;;;2027093;29;19915;-96
2023/06/01 21:17:39;;;;;;;;;;;;;;;;;;2014326;29;20466;-96
2023/06/01 21:18:59;;;;;;;;;;;;;;;;;;2020144;29;19908;-96
2023/06/01 21:20:22;;;;;;;;;;;;;;;;;;2017214;29;19908;-96
2023/06/01 21:21:43;;;;;;;;;;;;;;;;;;2021414;29;19918;-96
2023/06/01 21:23:03;;;;;;;;;;;;;;;;;;2017058;29;19908;-96
2023/06/01 21:24:24;;;;;;;;;;;;;;;;;;2018250;29;19912;-96
2023/06/01 21:25:45;;;;;;;;;;;;;;;;;;2020648;29;19924;-96
2023/06/01 21:27:06;;;;;;;;;;;;;;;;;;2016419;29;19979;-96
2023/06/01 21:28:27;;;;;;;;;;;;;;;;;;2018729;29;19908;-96
2023/06/01 21:29:49;;;;;;;;;;;;;;;;;;2025412;29;19974;-96
2023/06/01 21:31:10;;;;;;;;;;;;;;;;;;2022684;29;19933;-94
2023/06/01 21:32:30;;;;;;;;;;;;;;;;;;2018247;29;19968;-95
2023/06/01 21:33:51;;;;;;;;;;;;;;;;;;2018857;29;19915;-94
2023/06/01 21:35:12;;;;;;;;;;;;;;;;;;2024480;29;19908;-96
2023/06/01 21:36:33;;;;;;;;;;;;;;;;;;2020773;29;20355;-95
2023/06/01 21:37:53;;;;;;;;;;;;;;;;;;2017261;29;19923;-96
2023/06/01 21:39:17;;;;;;;;;;;;;;;;;;2021139;29;19912;-96
2023/06/01 21:40:39;;;;;;;;;;;;;;;;;;2021402;29;19908;-96
2023/06/01 21:42:00;;;;;;;;;;;;;;;;;;2018898;29;19920;-96
2023/06/01 21:43:21;;;;;;;;;;;;;;;;;;2016687;29;20237;-96
2023/06/01 21:44:43;;;;;;;;;;;;;;;;;;2016762;29;19908;-96
2023/06/01 21:46:04;;;;;;;;;;;;;;;;;;2025321;29;19912;-96
2023/06/01 21:47:27;;;;;;;;;;;;;;;;;;2025461;29;19927;-96
2023/06/01 21:48:48;;;;;;;;;;;;;;;;;;2017206;29;19931;-96
2023/06/01 21:50:09;;;;;;;;;;;;;;;;;;2026916;29;19911;-96
2023/06/01 21:51:29;;;;;;;;;;;;;;;;;;2022568;29;19896;-96
2023/06/01 21:52:50;;;;;;;;;;;;;;;;;;2021772;29;19968;-96
2023/06/01 21:54:11;;;;;;;;;;;;;;;;;;2015879;29;19907;-96
2023/06/01 21:55:32;;;;;;;;;;;;;;;;;;2025744;29;19907;-96
2023/06/01 21:56:53;;;;;;;;;;;;;;;;;;2018989;29;19919;-96
2023/06/01 21:58:13;;;;;;;;;;;;;;;;;;2029510;29;19915;-96
2023/06/01 21:59:34;;;;;;;;;;;;;;;;;;2019786;29;19955;-96
2023/06/01 22:00:55;;;;;;;;;;;;;;;;;;2030204;29;19919;-95
2023/06/01 22:02:16;;;;;;;;;;;;;;;;;;2025565;29;19920;-96
2023/06/01 22:03:36;;;;;;;;;;;;;;;;;;2028611;29;19912;-96
2023/06/01 22:04:57;;;;;;;;;;;;;;;;;;2030953;29;19922;-96
2023/06/01 22:06:18;;;;;;;;;;;;;;;;;;2026462;29;19911;-96
2023/06/01 22:07:39;;;;;;;;;;;;;;;;;;2031793;29;19903;-96
2023/06/01 22:08:59;;;;;;;;;;;;;;;;;;2025133;29;19914;-96
2023/06/01 22:10:20;;;;;;;;;;;;;;;;;;2028660;29;19940;-96
2023/06/01 22:11:41;;;;;;;;;;;;;;;;;;2035214;29;19907;-95
2023/06/01 22:13:04;;;;;;;;;;;;;;;;;;2035482;29;19912;-95
2023/06/01 22:14:25;;;;;;;;;;;;;;;;;;2031227;29;19912;-96
2023/06/01 22:15:48;;;;;;;;;;;;;;;;;;2019497;29;19909;-96
2023/06/01 22:17:12;;;;;;;;;;;;;;;;;;2030704;28;19899;-96
2023/06/01 22:27:55;;;;;;;;;;;;;;;;;;2189957;23;19928;-95
2023/06/01 22:29:16;;;;;;;;;;;;;;;;;;2022462;29;19931;-95
2023/06/01 22:30:38;;;;;;;;;;;;;;;;;;2021374;29;19921;-95
2023/06/01 22:31:58;;;;;;;;;;;;;;;;;;2018435;29;19907;-93
2023/06/01 22:33:22;;;;;;;;;;;;;;;;;;2021134;29;19968;-95
2023/06/01 22:34:43;;;;;;;;;;;;;;;;;;2022090;29;19897;-94
2023/06/01 22:36:04;;;;;;;;;;;;;;;;;;2022299;29;19899;-95
2023/06/01 22:37:25;;;;;;;;;;;;;;;;;;2018164;29;19900;-95
2023/06/01 22:38:46;;;;;;;;;;;;;;;;;;2024103;29;19908;-96
2023/06/01 22:40:07;;;;;;;;;;;;;;;;;;2020188;29;19921;-96
2023/06/01 22:41:27;;;;;;;;;;;;;;;;;;2019255;29;19896;-96
2023/06/01 22:42:48;;;;;;;;;;;;;;;;;;2013685;29;19908;-95
2023/06/01 22:44:09;;;;;;;;;;;;;;;;;;2013854;29;19900;-96
2023/06/01 22:45:31;;;;;;;;;;;;;;;;;;2019615;29;19896;-96
2023/06/01 22:46:52;;;;;;;;;;;;;;;;;;2022384;29;19900;-96
2023/06/01 22:48:13;;;;;;;;;;;;;;;;;;2014590;29;20053;-95
2023/06/01 22:49:34;;;;;;;;;;;;;;;;;;2019511;29;19903;-96
2023/06/01 22:50:55;;;;;;;;;;;;;;;;;;2022037;29;19892;-96
2023/06/01 22:52:16;;;;;;;;;;;;;;;;;;2021188;29;19927;-95
2023/06/01 22:53:38;;;;;;;;;;;;;;;;;;2026378;29;19903;-95
2023/06/01 22:54:58;;;;;;;;;;;;;;;;;;2021968;29;19920;-95
2023/06/01 22:56:19;;;;;;;;;;;;;;;;;;2019204;29;19904;-96
2023/06/01 22:57:40;;;;;;;;;;;;;;;;;;2027831;29;19900;-96
2023/06/01 22:59:01;;;;;;;;;;;;;;;;;;2022293;29;19896;-96
2023/06/01 23:00:21;;;;;;;;;;;;;;;;;;2025523;29;19903;-96
2023/06/01 23:01:42;;;;;;;;;;;;;;;;;;2016162;29;19900;-94
2023/06/01 23:03:03;;;;;;;;;;;;;;;;;;2019518;29;19911;-95
2023/06/01 23:04:24;;;;;;;;;;;;;;;;;;2028061;29;19896;-94
2023/06/01 23:05:49;;;;;;;;;;;;;;;;;;2015737;29;19912;-94
